CGR835 SCCF-SCIE
Flight info
| Callsign | CGR835 |
|---|---|
| Flight time | N/A |
| Altitude | 33000 |
| Route | DCT CEPAM UQ815 MORMI UT258 TOY UT105 UPUSI DCT SOSTA SOSTA6C |
| Aircraft | B739/M-SDE2E3FGHIRWXY/LB1 |
Departure
| Time | N/A |
|---|---|
| Airport | El Loa Airport (SCCF) |
Arrival
| Time | 2026-04-29 16:07 |
|---|---|
| Airport | Carriel Sur International Airport (SCIE) |
| Time | Latitude | Longitude | Altitude | Speed | Heading |
|---|---|---|---|---|---|
| 2026-04-29 15:46 | -35.13174 | -72.43179 | 34113 ft | 373 kts | 199° |
| 2026-04-29 15:46 | -35.15728 | -72.43833 | 33240 ft | 378 kts | 199° |
| 2026-04-29 15:46 | -35.18334 | -72.44499 | 32332 ft | 384 kts | 198° |
| 2026-04-29 15:46 | -35.20939 | -72.45157 | 31907 ft | 379 kts | 198° |
| 2026-04-29 15:47 | -35.23514 | -72.45804 | 31323 ft | 378 kts | 198° |
| 2026-04-29 15:47 | -35.26093 | -72.46454 | 30675 ft | 379 kts | 198° |
| 2026-04-29 15:47 | -35.28673 | -72.47105 | 30025 ft | 379 kts | 198° |
| 2026-04-29 15:47 | -35.31259 | -72.47758 | 29303 ft | 379 kts | 198° |
| 2026-04-29 15:48 | -35.33846 | -72.48411 | 28590 ft | 379 kts | 198° |
| 2026-04-29 15:48 | -35.36396 | -72.49055 | 27903 ft | 379 kts | 198° |
| 2026-04-29 15:48 | -35.38976 | -72.49708 | 27228 ft | 379 kts | 198° |
| 2026-04-29 15:48 | -35.41558 | -72.50361 | 26569 ft | 379 kts | 197° |
| 2026-04-29 15:49 | -35.44137 | -72.51014 | 25950 ft | 377 kts | 197° |
| 2026-04-29 15:49 | -35.46694 | -72.51660 | 25437 ft | 374 kts | 197° |
| 2026-04-29 15:49 | -35.49228 | -72.52301 | 24920 ft | 370 kts | 197° |
| 2026-04-29 15:49 | -35.51754 | -72.52941 | 24409 ft | 368 kts | 197° |
| 2026-04-29 15:50 | -35.54248 | -72.53574 | 23923 ft | 365 kts | 197° |
| 2026-04-29 15:50 | -35.56733 | -72.54206 | 23368 ft | 364 kts | 197° |
| 2026-04-29 15:50 | -35.59202 | -72.54834 | 22830 ft | 360 kts | 197° |
| 2026-04-29 15:50 | -35.61645 | -72.55455 | 22327 ft | 356 kts | 197° |
| 2026-04-29 15:51 | -35.64060 | -72.56069 | 21838 ft | 353 kts | 197° |
| 2026-04-29 15:51 | -35.66453 | -72.56678 | 21373 ft | 349 kts | 197° |
| 2026-04-29 15:51 | -35.68819 | -72.57282 | 20904 ft | 346 kts | 197° |
| 2026-04-29 15:51 | -35.71142 | -72.57875 | 20457 ft | 343 kts | 197° |
| 2026-04-29 15:52 | -35.73471 | -72.58470 | 19998 ft | 340 kts | 197° |
| 2026-04-29 15:52 | -35.75781 | -72.59060 | 19546 ft | 338 kts | 197° |
| 2026-04-29 15:52 | -35.78077 | -72.59647 | 19101 ft | 335 kts | 197° |
| 2026-04-29 15:52 | -35.80366 | -72.60232 | 18659 ft | 333 kts | 197° |
| 2026-04-29 15:53 | -35.82622 | -72.60846 | 18151 ft | 331 kts | 200° |
| 2026-04-29 15:53 | -35.84801 | -72.61734 | 17584 ft | 329 kts | 204° |
| 2026-04-29 15:53 | -35.86904 | -72.62743 | 17063 ft | 328 kts | 205° |
| 2026-04-29 15:53 | -35.89020 | -72.63794 | 16529 ft | 328 kts | 205° |
| 2026-04-29 15:54 | -35.91141 | -72.64844 | 16025 ft | 328 kts | 205° |
| 2026-04-29 15:54 | -35.93268 | -72.65884 | 15526 ft | 328 kts | 205° |
| 2026-04-29 15:54 | -35.95392 | -72.66911 | 15040 ft | 328 kts | 204° |
| 2026-04-29 15:54 | -35.97514 | -72.67930 | 14590 ft | 328 kts | 204° |
| 2026-04-29 15:55 | -35.99648 | -72.68949 | 14116 ft | 327 kts | 204° |
| 2026-04-29 15:55 | -36.01775 | -72.69961 | 13637 ft | 327 kts | 204° |
| 2026-04-29 15:55 | -36.03895 | -72.70969 | 13204 ft | 325 kts | 203° |
| 2026-04-29 15:55 | -36.06006 | -72.71971 | 12772 ft | 323 kts | 203° |
| 2026-04-29 15:56 | -36.08071 | -72.72953 | 12366 ft | 322 kts | 203° |
| 2026-04-29 15:56 | -36.10159 | -72.73946 | 11930 ft | 321 kts | 202° |
| 2026-04-29 15:56 | -36.12238 | -72.74935 | 11514 ft | 320 kts | 202° |
| 2026-04-29 15:56 | -36.14312 | -72.75922 | 11109 ft | 318 kts | 202° |
| 2026-04-29 15:57 | -36.16402 | -72.76916 | 10695 ft | 317 kts | 202° |
| 2026-04-29 15:57 | -36.18414 | -72.77875 | 10449 ft | 310 kts | 202° |
| 2026-04-29 15:57 | -36.20413 | -72.78828 | 10255 ft | 303 kts | 202° |
| 2026-04-29 15:57 | -36.22348 | -72.79748 | 10122 ft | 293 kts | 202° |
| 2026-04-29 15:58 | -36.24215 | -72.80638 | 10017 ft | 283 kts | 202° |
| 2026-04-29 15:58 | -36.26022 | -72.81501 | 9946 ft | 272 kts | 202° |
| 2026-04-29 15:58 | -36.27744 | -72.82323 | 9948 ft | 259 kts | 202° |
| 2026-04-29 15:58 | -36.29430 | -72.83129 | 9784 ft | 264 kts | 202° |
| 2026-04-29 15:59 | -36.31180 | -72.83968 | 9305 ft | 275 kts | 202° |
| 2026-04-29 15:59 | -36.32986 | -72.84832 | 8824 ft | 281 kts | 202° |
| 2026-04-29 15:59 | -36.34825 | -72.85711 | 8359 ft | 283 kts | 202° |
| 2026-04-29 15:59 | -36.36649 | -72.86580 | 7898 ft | 286 kts | 201° |
| 2026-04-29 16:00 | -36.38565 | -72.87294 | 7427 ft | 289 kts | 195° |
| 2026-04-29 16:00 | -36.40523 | -72.87895 | 6983 ft | 291 kts | 194° |
| 2026-04-29 16:00 | -36.42497 | -72.88487 | 6527 ft | 292 kts | 194° |
| 2026-04-29 16:00 | -36.44476 | -72.89093 | 6063 ft | 294 kts | 194° |
| 2026-04-29 16:01 | -36.46471 | -72.89718 | 5597 ft | 297 kts | 194° |
| 2026-04-29 16:01 | -36.48474 | -72.90355 | 5131 ft | 299 kts | 194° |
| 2026-04-29 16:01 | -36.50523 | -72.91008 | 4500 ft | 303 kts | 194° |
| 2026-04-29 16:01 | -36.52500 | -72.91798 | 4046 ft | 294 kts | 203° |
| 2026-04-29 16:02 | -36.54303 | -72.92861 | 3867 ft | 278 kts | 206° |
| 2026-04-29 16:02 | -36.55986 | -72.93895 | 3708 ft | 261 kts | 206° |
| 2026-04-29 16:02 | -36.57584 | -72.94854 | 3592 ft | 250 kts | 205° |
| 2026-04-29 16:02 | -36.59105 | -72.95750 | 3506 ft | 240 kts | 205° |
| 2026-04-29 16:03 | -36.60593 | -72.96624 | 3290 ft | 237 kts | 205° |
| 2026-04-29 16:03 | -36.62074 | -72.97486 | 3013 ft | 232 kts | 205° |
| 2026-04-29 16:03 | -36.63516 | -72.98324 | 2738 ft | 225 kts | 204° |
| 2026-04-29 16:03 | -36.64909 | -72.99133 | 2423 ft | 217 kts | 203° |
| 2026-04-29 16:04 | -36.66247 | -72.99910 | 2124 ft | 206 kts | 202° |
| 2026-04-29 16:04 | -36.67504 | -73.00641 | 1854 ft | 192 kts | 202° |
| 2026-04-29 16:04 | -36.68660 | -73.01312 | 1736 ft | 174 kts | 203° |
| 2026-04-29 16:04 | -36.69707 | -73.01921 | 1704 ft | 158 kts | 202° |
| 2026-04-29 16:05 | -36.70663 | -73.02476 | 1691 ft | 149 kts | 202° |
| 2026-04-29 16:05 | -36.71581 | -73.03008 | 1640 ft | 145 kts | 202° |
| 2026-04-29 16:05 | -36.72470 | -73.03522 | 1360 ft | 136 kts | 203° |
| 2026-04-29 16:05 | -36.73331 | -73.04035 | 929 ft | 139 kts | 204° |
| 2026-04-29 16:06 | -36.74209 | -73.04576 | 688 ft | 142 kts | 204° |
| 2026-04-29 16:06 | -36.75106 | -73.05067 | 427 ft | 143 kts | 201° |
| 2026-04-29 16:06 | -36.76001 | -73.05598 | 127 ft | 140 kts | 200° |
| 2026-04-29 16:06 | -36.76833 | -73.06065 | 64 ft | 114 kts | 206° |
| 2026-04-29 16:07 | -36.77412 | -73.06409 | 62 ft | 70 kts | 204° |
| 2026-04-29 16:07 | -36.77631 | -73.06536 | 61 ft | 25 kts | 205° |
| 2026-04-29 16:07 | -36.77784 | -73.06624 | 58 ft | 23 kts | 206° |
| 2026-04-29 16:07 | -36.77901 | -73.06695 | 58 ft | 8 kts | 205° |
| 2026-04-29 16:08 | -36.77953 | -73.06686 | 63 ft | 8 kts | 136° |
| 2026-04-29 16:08 | -36.77981 | -73.06617 | 62 ft | 10 kts | 113° |
| 2026-04-29 16:08 | -36.78005 | -73.06544 | 57 ft | 7 kts | 100° |
| 2026-04-29 16:08 | -36.77983 | -73.06499 | 55 ft | 6 kts | 32° |
| 2026-04-29 16:09 | -36.77944 | -73.06473 | 57 ft | 6 kts | 26° |
| 2026-04-29 16:09 | -36.77905 | -73.06450 | 56 ft | 6 kts | 25° |
| 2026-04-29 16:09 | -36.77867 | -73.06427 | 53 ft | 6 kts | 25° |
| 2026-04-29 16:09 | -36.77830 | -73.06406 | 58 ft | 6 kts | 24° |
| 2026-04-29 16:10 | -36.77792 | -73.06385 | 60 ft | 7 kts | 24° |
| 2026-04-29 16:10 | -36.77728 | -73.06347 | 54 ft | 14 kts | 25° |
| 2026-04-29 16:10 | -36.77636 | -73.06292 | 55 ft | 15 kts | 24° |
| 2026-04-29 16:10 | -36.77546 | -73.06240 | 59 ft | 12 kts | 25° |
| 2026-04-29 16:11 | -36.77507 | -73.06168 | 60 ft | 11 kts | 101° |
| 2026-04-29 16:11 | -36.77530 | -73.06078 | 54 ft | 11 kts | 103° |
| 2026-04-29 16:11 | -36.77539 | -73.05990 | 59 ft | 9 kts | 92° |
| 2026-04-29 16:11 | -36.77542 | -73.05932 | 55 ft | 7 kts | 97° |
| 2026-04-29 16:12 | -36.77554 | -73.05883 | 59 ft | 5 kts | 124° |
| 2026-04-29 16:12 | -36.77575 | -73.05878 | 56 ft | 4 kts | 201° |
| 2026-04-29 16:12 | -36.77605 | -73.05894 | 52 ft | 2 kts | 199° |
| 2026-04-29 16:12 | -36.77608 | -73.05895 | 53 ft | 0 kts | 199° |